Time;durP1;ratioP1;P1;durP2;ratioP2;P2;SDS_P1;SDS_P2;PMS_P1;PMS_P2;Temp;Humidity;BMP_temperature;BMP_pressure;BME280_temperature;BME280_humidity;BME280_pressure;Samples;Min_cycle;Max_cycle;Signal;HPM_P1;HPM_P2
2022/04/06 00:01:47;;;;;;;19.20;3.22;;;;;;;;;;5020232;28;20075;-76
2022/04/06 00:04:12;;;;;;;25.15;3.58;;;;;;;;;;5018802;28;20465;-76
2022/04/06 00:06:38;;;;;;;22.58;3.97;;;;;;;;;;5015138;28;20500;-76
2022/04/06 00:09:03;;;;;;;32.28;3.90;;;;;;;;;;5020411;28;20937;-76
2022/04/06 00:11:34;;;;;;;25.95;4.22;;;;;;;;;;5020051;28;20041;-77
2022/04/06 00:14:02;;;;;;;21.63;3.90;;;;;;;;;;5021595;28;20276;-75
2022/04/06 00:16:31;;;;;;;29.92;4.40;;;;;;;;;;5023180;28;20033;-66
2022/04/06 00:18:57;;;;;;;34.60;5.20;;;;;;;;;;5023399;28;20029;-67
2022/04/06 00:21:25;;;;;;;33.05;5.78;;;;;;;;;;5023875;28;20739;-68
2022/04/06 00:23:50;;;;;;;27.23;5.30;;;;;;;;;;5043532;28;20041;-67
2022/04/06 00:26:16;;;;;;;24.15;5.28;;;;;;;;;;5023988;28;20538;-68
2022/04/06 00:28:41;;;;;;;33.67;5.60;;;;;;;;;;5024285;28;20028;-67
2022/04/06 00:31:07;;;;;;;36.47;5.45;;;;;;;;;;5024302;28;20037;-68
2022/04/06 00:33:32;;;;;;;34.47;5.85;;;;;;;;;;5024268;28;20075;-68
2022/04/06 00:35:57;;;;;;;35.92;6.05;;;;;;;;;;5025164;28;20224;-68
2022/04/06 00:38:23;;;;;;;36.20;5.70;;;;;;;;;;5024389;28;20503;-68
2022/04/06 00:40:48;;;;;;;44.80;8.02;;;;;;;;;;5030798;28;20036;-68
2022/04/06 00:43:14;;;;;;;37.15;6.72;;;;;;;;;;5037123;28;20665;-68
2022/04/06 00:45:40;;;;;;;44.20;7.88;;;;;;;;;;5025128;28;20521;-68
2022/04/06 00:48:06;;;;;;;37.03;7.65;;;;;;;;;;5023942;28;20025;-68
2022/04/06 00:50:32;;;;;;;41.33;7.95;;;;;;;;;;5023480;28;20059;-66
2022/04/06 00:52:57;;;;;;;43.30;7.05;;;;;;;;;;5024083;28;20072;-67
2022/04/06 00:55:25;;;;;;;35.42;7.30;;;;;;;;;;5038915;28;20915;-68
2022/04/06 00:57:50;;;;;;;52.63;9.63;;;;;;;;;;5023293;28;20033;-68
2022/04/06 01:00:19;;;;;;;43.45;8.38;;;;;;;;;;5022385;28;20036;-68
2022/04/06 01:02:47;;;;;;;50.37;9.07;;;;;;;;;;5024408;28;20025;-68
2022/04/06 01:05:13;;;;;;;49.67;9.77;;;;;;;;;;5022903;28;20021;-68
2022/04/06 01:07:42;;;;;;;56.63;9.50;;;;;;;;;;5010734;28;20485;-67
2022/04/06 01:10:07;;;;;;;50.70;9.93;;;;;;;;;;5024970;28;20071;-69
2022/04/06 01:12:34;;;;;;;52.20;9.63;;;;;;;;;;5020427;28;20115;-67
2022/04/06 01:14:59;;;;;;;48.83;10.20;;;;;;;;;;5021987;28;20057;-67
2022/04/06 01:17:30;;;;;;;48.75;9.80;;;;;;;;;;5023407;28;20060;-67
2022/04/06 01:19:56;;;;;;;48.13;9.18;;;;;;;;;;5021629;28;20029;-67
2022/04/06 01:22:24;;;;;;;43.53;9.75;;;;;;;;;;5053718;28;20372;-68
2022/04/06 01:24:49;;;;;;;43.95;10.52;;;;;;;;;;5038731;28;20133;-68
2022/04/06 01:27:16;;;;;;;46.60;10.25;;;;;;;;;;5022626;28;20266;-67
2022/04/06 01:29:42;;;;;;;49.53;10.70;;;;;;;;;;5022929;28;20523;-67
2022/04/06 01:32:09;;;;;;;44.90;10.65;;;;;;;;;;5022068;28;20389;-67
2022/04/06 01:34:34;;;;;;;46.50;10.93;;;;;;;;;;5022054;28;20430;-67
2022/04/06 01:37:00;;;;;;;48.83;10.98;;;;;;;;;;5022490;28;20029;-67
2022/04/06 01:39:27;;;;;;;48.65;11.60;;;;;;;;;;5021444;28;20021;-68
2022/04/06 01:41:55;;;;;;;31.98;10.18;;;;;;;;;;5022275;28;20211;-67
2022/04/06 01:44:21;;;;;;;51.83;12.35;;;;;;;;;;5021785;28;20049;-67
2022/04/06 01:46:46;;;;;;;35.78;10.75;;;;;;;;;;5021193;28;20614;-68
2022/04/06 01:52:15;;;;;;;36.38;10.07;;;;;;;;;;5023331;28;20658;-67
2022/04/06 01:54:51;;;;;;;41.33;10.27;;;;;;;;;;5022140;28;20041;-68
2022/04/06 01:57:17;;;;;;;40.10;10.40;;;;;;;;;;5023892;28;20253;-67
2022/04/06 01:59:43;;;;;;;49.80;9.63;;;;;;;;;;5021385;28;20482;-67
2022/04/06 02:02:10;;;;;;;36.05;9.32;;;;;;;;;;5025486;28;20190;-68
2022/04/06 02:04:36;;;;;;;46.67;9.13;;;;;;;;;;5027748;28;20033;-67
2022/04/06 02:07:01;;;;;;;35.83;9.07;;;;;;;;;;5005359;28;20082;-68
2022/04/06 02:09:27;;;;;;;33.85;7.43;;;;;;;;;;5021551;28;20056;-67
2022/04/06 02:11:52;;;;;;;34.15;8.13;;;;;;;;;;5022771;28;20055;-68
2022/04/06 02:14:20;;;;;;;34.60;7.53;;;;;;;;;;5022927;28;20061;-67
2022/04/06 02:16:46;;;;;;;33.08;6.65;;;;;;;;;;5024037;28;20041;-67
2022/04/06 02:19:11;;;;;;;40.17;7.03;;;;;;;;;;5023421;28;20396;-68
2022/04/06 02:21:36;;;;;;;34.25;6.68;;;;;;;;;;5023034;28;20480;-68
2022/04/06 02:24:02;;;;;;;36.90;7.10;;;;;;;;;;5020250;28;20067;-67
2022/04/06 02:26:28;;;;;;;35.38;6.53;;;;;;;;;;5022401;28;20530;-68
2022/04/06 02:29:00;;;;;;;31.35;6.25;;;;;;;;;;5024534;28;20029;-69
2022/04/06 02:31:26;;;;;;;41.30;7.68;;;;;;;;;;5022042;28;20220;-67
2022/04/06 02:33:51;;;;;;;35.20;6.53;;;;;;;;;;5054083;28;20124;-68
2022/04/06 02:36:17;;;;;;;34.03;6.15;;;;;;;;;;5024069;28;20526;-68
2022/04/06 02:38:45;;;;;;;38.80;6.28;;;;;;;;;;5040818;28;20123;-68
2022/04/06 02:41:10;;;;;;;28.63;5.55;;;;;;;;;;5020815;28;20447;-68
2022/04/06 02:43:36;;;;;;;44.08;6.90;;;;;;;;;;5023230;28;20108;-68
2022/04/06 02:46:01;;;;;;;36.63;5.55;;;;;;;;;;5021609;28;20036;-68
2022/04/06 02:48:32;;;;;;;33.50;5.85;;;;;;;;;;5023327;28;20029;-68
2022/04/06 02:50:58;;;;;;;32.70;5.85;;;;;;;;;;5022497;28;20476;-67
2022/04/06 02:53:23;;;;;;;31.60;6.32;;;;;;;;;;5021763;28;21948;-67
2022/04/06 02:55:50;;;;;;;28.90;5.45;;;;;;;;;;5022265;28;20021;-67
2022/04/06 02:58:16;;;;;;;33.28;5.95;;;;;;;;;;5022253;28;20060;-67
2022/04/06 03:00:41;;;;;;;36.63;6.38;;;;;;;;;;5021988;28;22029;-67
2022/04/06 03:03:07;;;;;;;33.92;7.35;;;;;;;;;;5022496;28;20033;-68
2022/04/06 03:05:33;;;;;;;27.58;5.85;;;;;;;;;;5021147;28;20442;-69
2022/04/06 03:07:58;;;;;;;32.38;6.38;;;;;;;;;;5008208;28;20036;-67
2022/04/06 03:10:23;;;;;;;40.13;7.30;;;;;;;;;;5020434;28;20032;-69
2022/04/06 03:12:49;;;;;;;29.80;6.20;;;;;;;;;;5020246;28;20181;-68
2022/04/06 03:15:14;;;;;;;26.90;5.50;;;;;;;;;;5020806;28;20025;-68
2022/04/06 03:17:40;;;;;;;42.03;6.15;;;;;;;;;;5021526;28;20025;-67
2022/04/06 03:20:07;;;;;;;35.65;6.03;;;;;;;;;;5021479;28;20037;-69
2022/04/06 03:22:33;;;;;;;35.25;5.78;;;;;;;;;;5021716;28;20043;-69
2022/04/06 03:24:59;;;;;;;35.10;5.97;;;;;;;;;;5020250;28;20028;-68
2022/04/06 03:27:26;;;;;;;36.83;5.82;;;;;;;;;;5023268;28;20036;-69
2022/04/06 03:29:52;;;;;;;32.63;5.35;;;;;;;;;;5020165;28;20033;-67
2022/04/06 03:32:18;;;;;;;35.97;5.15;;;;;;;;;;5020310;28;20037;-69
2022/04/06 03:34:44;;;;;;;32.65;5.85;;;;;;;;;;5019156;28;20043;-69
2022/04/06 03:37:09;;;;;;;33.83;5.90;;;;;;;;;;5021485;28;20060;-68
2022/04/06 03:39:35;;;;;;;27.90;5.82;;;;;;;;;;5018832;28;20083;-68
2022/04/06 03:42:00;;;;;;;40.90;5.32;;;;;;;;;;5022501;28;20447;-68
2022/04/06 03:44:28;;;;;;;31.33;5.90;;;;;;;;;;5023767;28;20056;-68
2022/04/06 03:46:54;;;;;;;31.23;5.25;;;;;;;;;;5024019;28;20063;-67
2022/04/06 03:49:19;;;;;;;30.08;5.60;;;;;;;;;;5024854;28;20057;-68
2022/04/06 03:51:45;;;;;;;37.17;5.35;;;;;;;;;;5024238;28;20161;-67
2022/04/06 03:54:12;;;;;;;31.23;5.53;;;;;;;;;;5042275;28;20393;-68
2022/04/06 03:56:38;;;;;;;31.85;5.53;;;;;;;;;;5024061;28;20132;-68
2022/04/06 03:59:04;;;;;;;37.90;5.90;;;;;;;;;;5025875;28;20091;-68
2022/04/06 04:01:30;;;;;;;34.63;5.55;;;;;;;;;;5021995;28;20176;-68
2022/04/06 04:03:58;;;;;;;32.78;5.60;;;;;;;;;;5023206;28;20026;-68
2022/04/06 04:06:25;;;;;;;36.58;5.40;;;;;;;;;;5025660;28;20114;-68
2022/04/06 04:08:51;;;;;;;28.70;4.43;;;;;;;;;;5025111;28;20159;-67
2022/04/06 04:11:16;;;;;;;28.27;5.10;;;;;;;;;;5024219;28;20083;-67
2022/04/06 04:13:42;;;;;;;34.35;5.28;;;;;;;;;;5024422;28;20093;-67
2022/04/06 04:16:08;;;;;;;33.65;5.60;;;;;;;;;;5022309;28;20043;-68
2022/04/06 04:18:33;;;;;;;25.55;4.72;;;;;;;;;;5023509;28;20037;-68
2022/04/06 04:23:43;;;;;;;35.95;5.07;;;;;;;;;;5051545;28;20033;-67
2022/04/06 04:26:08;;;;;;;34.75;4.95;;;;;;;;;;5022425;28;20033;-67
2022/04/06 04:28:33;;;;;;;30.77;5.20;;;;;;;;;;5023455;28;20498;-68
2022/04/06 04:30:59;;;;;;;28.27;4.82;;;;;;;;;;5007421;28;20033;-68
2022/04/06 04:33:27;;;;;;;37.38;5.47;;;;;;;;;;5025764;28;20028;-68
2022/04/06 04:35:52;;;;;;;32.25;5.32;;;;;;;;;;5022826;28;20082;-68
2022/04/06 04:38:18;;;;;;;29.23;5.63;;;;;;;;;;5021841;28;20038;-66
2022/04/06 04:40:43;;;;;;;33.05;6.20;;;;;;;;;;5021701;28;20033;-68
2022/04/06 04:43:08;;;;;;;30.15;4.45;;;;;;;;;;5056386;28;20021;-69
2022/04/06 04:45:34;;;;;;;42.30;5.82;;;;;;;;;;5024428;28;20029;-69
2022/04/06 04:47:59;;;;;;;38.55;6.57;;;;;;;;;;5022457;28;20037;-67
2022/04/06 04:50:25;;;;;;;37.05;6.20;;;;;;;;;;5037356;28;20368;-68
2022/04/06 04:52:50;;;;;;;36.47;6.03;;;;;;;;;;5039922;28;20036;-68
2022/04/06 04:55:16;;;;;;;43.13;7.28;;;;;;;;;;5025930;28;20445;-68
2022/04/06 04:57:43;;;;;;;49.00;7.45;;;;;;;;;;5026270;28;20056;-68
2022/04/06 05:00:09;;;;;;;45.00;6.95;;;;;;;;;;5022412;28;20117;-68
2022/04/06 05:02:36;;;;;;;49.38;7.00;;;;;;;;;;5023570;28;20581;-68
2022/04/06 05:05:02;;;;;;;36.92;7.65;;;;;;;;;;5025833;28;20521;-68
2022/04/06 05:07:28;;;;;;;50.15;6.85;;;;;;;;;;5023842;28;20028;-69
2022/04/06 05:09:53;;;;;;;43.22;7.25;;;;;;;;;;5021921;28;20431;-67
2022/04/06 05:12:21;;;;;;;45.38;7.32;;;;;;;;;;5037990;28;20481;-68
2022/04/06 05:14:49;;;;;;;41.20;6.65;;;;;;;;;;5022301;28;20072;-68
2022/04/06 05:17:16;;;;;;;41.58;6.25;;;;;;;;;;5022239;28;20473;-68
2022/04/06 05:19:42;;;;;;;38.33;6.65;;;;;;;;;;5024408;28;20044;-68
2022/04/06 05:22:09;;;;;;;34.72;6.72;;;;;;;;;;5023349;28;21877;-69
2022/04/06 05:24:35;;;;;;;50.00;7.20;;;;;;;;;;5020814;28;20025;-68
2022/04/06 05:27:02;;;;;;;47.38;7.15;;;;;;;;;;5023245;28;20021;-68
2022/04/06 05:29:27;;;;;;;45.33;7.97;;;;;;;;;;5020860;28;20029;-68
2022/04/06 05:31:52;;;;;;;37.97;6.18;;;;;;;;;;5021857;28;20056;-68
2022/04/06 05:34:18;;;;;;;44.58;7.10;;;;;;;;;;5021512;28;20028;-68
2022/04/06 05:36:46;;;;;;;44.60;6.32;;;;;;;;;;5021687;28;20246;-68
2022/04/06 05:39:12;;;;;;;41.22;6.57;;;;;;;;;;5037648;28;20135;-68
2022/04/06 05:41:38;;;;;;;44.30;5.85;;;;;;;;;;5022788;28;20043;-67
2022/04/06 05:44:03;;;;;;;37.03;6.03;;;;;;;;;;5036519;28;20489;-67
2022/04/06 05:46:34;;;;;;;35.28;5.10;;;;;;;;;;5018964;28;20118;-67
2022/04/06 05:48:59;;;;;;;39.33;5.82;;;;;;;;;;5021101;28;20100;-68
2022/04/06 05:51:29;;;;;;;41.80;5.95;;;;;;;;;;5019247;28;20059;-68
2022/04/06 05:53:54;;;;;;;40.55;6.22;;;;;;;;;;5022599;28;20028;-67
2022/04/06 05:56:20;;;;;;;45.53;5.75;;;;;;;;;;5019290;28;20368;-69
2022/04/06 05:58:45;;;;;;;40.75;6.13;;;;;;;;;;5020457;28;20029;-68
2022/04/06 06:01:13;;;;;;;36.28;5.63;;;;;;;;;;5021658;28;20055;-68
2022/04/06 06:03:38;;;;;;;47.00;5.45;;;;;;;;;;5022567;28;20025;-67
2022/04/06 06:06:05;;;;;;;34.78;6.35;;;;;;;;;;5020140;28;20086;-67
2022/04/06 06:08:30;;;;;;;33.97;5.78;;;;;;;;;;5018611;28;20029;-68
2022/04/06 06:10:55;;;;;;;37.58;5.03;;;;;;;;;;5020369;28;20032;-68
2022/04/06 06:13:22;;;;;;;38.45;6.10;;;;;;;;;;5019265;28;20234;-69
2022/04/06 06:15:48;;;;;;;36.63;5.57;;;;;;;;;;5020607;28;20035;-68
2022/04/06 06:18:13;;;;;;;27.65;5.45;;;;;;;;;;5019426;28;20051;-67
2022/04/06 06:20:40;;;;;;;38.65;5.22;;;;;;;;;;5019896;28;20174;-67
2022/04/06 06:23:05;;;;;;;31.52;5.45;;;;;;;;;;5018542;28;20547;-67
2022/04/06 06:25:31;;;;;;;39.25;5.65;;;;;;;;;;5020427;28;20055;-68
2022/04/06 06:27:57;;;;;;;34.58;5.88;;;;;;;;;;5020086;28;20124;-67
2022/04/06 06:30:24;;;;;;;41.45;4.95;;;;;;;;;;5020025;28;20043;-68
2022/04/06 06:32:49;;;;;;;37.95;5.38;;;;;;;;;;5023383;28;20241;-68
2022/04/06 06:35:19;;;;;;;37.92;5.47;;;;;;;;;;5019343;28;20029;-67
2022/04/06 06:37:48;;;;;;;44.67;6.38;;;;;;;;;;5020178;28;20420;-67
2022/04/06 06:40:13;;;;;;;35.42;5.93;;;;;;;;;;5020629;28;20029;-68
2022/04/06 06:42:41;;;;;;;45.50;7.18;;;;;;;;;;5022668;28;20477;-68
2022/04/06 06:45:07;;;;;;;37.83;6.13;;;;;;;;;;5019899;28;20033;-69
2022/04/06 06:47:33;;;;;;;35.45;5.45;;;;;;;;;;5022509;28;22326;-68
2022/04/06 06:49:58;;;;;;;43.17;6.80;;;;;;;;;;5020027;28;20314;-68
2022/04/06 06:52:23;;;;;;;36.70;5.68;;;;;;;;;;5021098;28;20440;-68
2022/04/06 06:54:52;;;;;;;33.92;6.30;;;;;;;;;;5020798;28;20488;-68
2022/04/06 06:57:22;;;;;;;46.22;7.85;;;;;;;;;;5050719;28;20437;-68
2022/04/06 06:59:48;;;;;;;29.48;5.10;;;;;;;;;;5018436;28;20567;-67
2022/04/06 07:02:13;;;;;;;37.08;6.32;;;;;;;;;;5018861;28;20567;-67
2022/04/06 07:04:39;;;;;;;37.65;6.03;;;;;;;;;;5019022;28;20055;-65
2022/04/06 07:07:12;;;;;;;43.13;6.93;;;;;;;;;;5021683;28;20503;-67
2022/04/06 07:09:37;;;;;;;37.28;6.43;;;;;;;;;;5034143;28;20048;-68
2022/04/06 07:12:02;;;;;;;32.92;6.30;;;;;;;;;;5018366;28;20033;-67
2022/04/06 07:14:28;;;;;;;35.10;7.25;;;;;;;;;;5036711;28;20144;-67
2022/04/06 07:16:56;;;;;;;38.90;5.88;;;;;;;;;;5022498;28;20064;-67
2022/04/06 07:19:21;;;;;;;42.53;6.57;;;;;;;;;;5022946;28;20029;-67
2022/04/06 07:21:47;;;;;;;42.70;6.25;;;;;;;;;;5023561;28;20496;-68
2022/04/06 07:24:15;;;;;;;36.10;5.78;;;;;;;;;;5024438;28;20128;-67
2022/04/06 07:26:44;;;;;;;37.60;5.63;;;;;;;;;;5023007;28;20094;-67
2022/04/06 07:29:11;;;;;;;38.40;7.13;;;;;;;;;;5022470;28;20629;-67
2022/04/06 07:31:37;;;;;;;50.17;7.75;;;;;;;;;;5022040;28;20037;-67
2022/04/06 07:34:05;;;;;;;42.95;6.95;;;;;;;;;;5023942;28;20064;-68
2022/04/06 07:36:31;;;;;;;41.97;7.53;;;;;;;;;;5019953;28;20036;-67
2022/04/06 07:39:00;;;;;;;49.50;6.70;;;;;;;;;;5008340;28;20045;-67
2022/04/06 07:41:25;;;;;;;47.20;6.97;;;;;;;;;;5054994;28;20125;-67
2022/04/06 07:43:51;;;;;;;41.72;6.78;;;;;;;;;;5007916;28;20186;-68
2022/04/06 07:46:16;;;;;;;50.28;7.45;;;;;;;;;;5021182;28;20378;-68
2022/04/06 07:48:44;;;;;;;45.28;6.55;;;;;;;;;;5020181;28;20021;-67
2022/04/06 07:51:10;;;;;;;48.53;7.00;;;;;;;;;;5025052;28;20075;-66
2022/04/06 07:53:35;;;;;;;54.08;7.38;;;;;;;;;;5022036;28;20037;-67
2022/04/06 07:56:03;;;;;;;43.33;7.95;;;;;;;;;;5020524;28;20095;-68
2022/04/06 07:58:32;;;;;;;47.72;8.32;;;;;;;;;;5054068;28;20039;-67
2022/04/06 08:01:01;;;;;;;48.17;7.22;;;;;;;;;;5022335;28;20622;-68
2022/04/06 08:03:26;;;;;;;45.67;7.43;;;;;;;;;;5004136;28;21150;-67
2022/04/06 08:05:54;;;;;;;37.65;6.13;;;;;;;;;;5053918;28;20132;-68
2022/04/06 08:08:19;;;;;;;37.20;6.93;;;;;;;;;;5023379;28;20705;-68
2022/04/06 08:10:45;;;;;;;33.63;7.00;;;;;;;;;;5022118;28;22356;-68
2022/04/06 08:13:11;;;;;;;39.80;6.63;;;;;;;;;;5030287;28;20195;-67
2022/04/06 08:15:36;;;;;;;47.33;6.93;;;;;;;;;;5018911;28;20127;-66
2022/04/06 08:18:02;;;;;;;47.25;6.85;;;;;;;;;;5007638;28;20403;-68
2022/04/06 08:20:27;;;;;;;50.22;7.50;;;;;;;;;;5040488;28;20049;-69
2022/04/06 08:22:56;;;;;;;43.95;6.78;;;;;;;;;;5022084;28;20035;-67
2022/04/06 08:25:22;;;;;;;44.70;7.32;;;;;;;;;;5019593;28;20037;-66
2022/04/06 08:27:50;;;;;;;50.00;7.30;;;;;;;;;;5020455;28;20124;-67
2022/04/06 08:30:22;;;;;;;48.08;7.38;;;;;;;;;;5020989;28;20043;-66
2022/04/06 08:32:48;;;;;;;43.72;6.95;;;;;;;;;;5020447;28;20408;-67
2022/04/06 08:35:17;;;;;;;51.40;7.20;;;;;;;;;;5021425;28;21975;-66
2022/04/06 08:37:43;;;;;;;39.03;6.50;;;;;;;;;;5022617;28;20056;-68
2022/04/06 08:40:11;;;;;;;47.30;7.68;;;;;;;;;;5021097;28;20464;-67
2022/04/06 08:42:37;;;;;;;41.25;7.20;;;;;;;;;;5028071;28;20025;-68
2022/04/06 08:45:04;;;;;;;44.10;6.78;;;;;;;;;;5021714;28;20123;-67
2022/04/06 08:47:31;;;;;;;39.58;6.43;;;;;;;;;;5024818;28;20025;-68
2022/04/06 08:49:57;;;;;;;56.70;7.75;;;;;;;;;;5039400;28;20110;-68
2022/04/06 08:52:22;;;;;;;45.17;7.10;;;;;;;;;;5024159;28;20481;-69
2022/04/06 08:54:48;;;;;;;37.90;6.68;;;;;;;;;;5022548;28;20021;-68
2022/04/06 08:57:14;;;;;;;40.63;8.15;;;;;;;;;;5014840;28;20060;-67
2022/04/06 08:59:39;;;;;;;46.75;7.22;;;;;;;;;;5021462;28;20600;-66
2022/04/06 09:02:07;;;;;;;45.90;7.97;;;;;;;;;;5021050;28;20052;-68
2022/04/06 09:04:38;;;;;;;42.47;8.10;;;;;;;;;;5022546;28;20029;-66
2022/04/06 09:07:09;;;;;;;42.80;7.97;;;;;;;;;;5021973;28;20177;-67
2022/04/06 09:09:35;;;;;;;46.67;7.40;;;;;;;;;;5041472;28;20931;-67
2022/04/06 09:12:04;;;;;;;47.78;7.63;;;;;;;;;;5021936;28;20056;-68
2022/04/06 09:14:30;;;;;;;42.72;6.95;;;;;;;;;;5053066;28;20022;-68
2022/04/06 09:17:04;;;;;;;47.67;7.30;;;;;;;;;;5021936;28;20033;-67
2022/04/06 09:19:29;;;;;;;56.70;8.40;;;;;;;;;;5022195;28;20142;-67
2022/04/06 09:21:55;;;;;;;55.15;8.40;;;;;;;;;;5021812;28;20345;-67
2022/04/06 09:24:25;;;;;;;38.33;6.35;;;;;;;;;;5023252;28;20029;-67
2022/04/06 09:26:57;;;;;;;49.05;7.93;;;;;;;;;;5022284;28;20035;-67
2022/04/06 09:29:24;;;;;;;49.38;7.80;;;;;;;;;;5021938;28;20020;-67
2022/04/06 09:31:49;;;;;;;49.97;7.80;;;;;;;;;;5023087;28;20048;-67
2022/04/06 09:34:19;;;;;;;49.75;7.50;;;;;;;;;;5020637;28;20029;-68
2022/04/06 09:36:45;;;;;;;45.08;7.97;;;;;;;;;;5025896;28;20029;-67
2022/04/06 09:39:10;;;;;;;55.03;8.45;;;;;;;;;;5019922;28;20403;-67
2022/04/06 09:41:56;;;;;;;45.17;7.75;;;;;;;;;;5019505;28;20187;-67
2022/04/06 09:50:06;;;;;;;46.42;7.72;;;;;;;;;;5019668;28;20026;-67
2022/04/06 09:52:31;;;;;;;47.00;7.85;;;;;;;;;;5023471;28;20021;-67
2022/04/06 09:54:57;;;;;;;44.70;7.03;;;;;;;;;;5021071;28;20067;-67
2022/04/06 09:57:22;;;;;;;51.40;8.52;;;;;;;;;;5021717;28;20036;-67
2022/04/06 09:59:48;;;;;;;47.45;7.70;;;;;;;;;;5019404;28;20033;-68
2022/04/06 10:02:13;;;;;;;54.22;8.75;;;;;;;;;;5030190;28;20049;-67
2022/04/06 10:04:39;;;;;;;52.75;7.32;;;;;;;;;;5020955;28;20393;-67
2022/04/06 10:07:07;;;;;;;46.40;7.82;;;;;;;;;;5024492;28;20124;-67
2022/04/06 10:09:44;;;;;;;48.65;8.00;;;;;;;;;;5025382;28;20488;-66
2022/04/06 10:12:11;;;;;;;50.63;8.45;;;;;;;;;;5023587;28;20078;-67
2022/04/06 10:14:36;;;;;;;49.63;8.75;;;;;;;;;;5020166;28;20047;-67
2022/04/06 10:17:05;;;;;;;52.88;8.30;;;;;;;;;;5019788;28;20060;-66
2022/04/06 10:19:33;;;;;;;46.28;8.07;;;;;;;;;;5020425;28;20032;-67
2022/04/06 10:22:01;;;;;;;51.72;8.40;;;;;;;;;;5019577;28;20032;-67
2022/04/06 10:24:33;;;;;;;44.60;7.50;;;;;;;;;;5020730;28;20036;-67
2022/04/06 10:27:17;;;;;;;53.53;8.90;;;;;;;;;;5019001;28;20018;-67
2022/04/06 10:30:01;;;;;;;40.17;7.22;;;;;;;;;;5017696;28;20033;-67
2022/04/06 10:32:36;;;;;;;36.85;7.18;;;;;;;;;;5043764;28;20063;-67
2022/04/06 10:35:21;;;;;;;33.97;6.57;;;;;;;;;;5018539;28;20037;-68
2022/04/06 10:38:07;;;;;;;53.17;8.15;;;;;;;;;;5021795;28;20370;-66
2022/04/06 10:40:45;;;;;;;48.40;7.82;;;;;;;;;;5015314;28;20072;-67
2022/04/06 10:43:29;;;;;;;47.20;8.30;;;;;;;;;;5018808;28;20025;-67
2022/04/06 10:45:58;;;;;;;49.08;8.07;;;;;;;;;;5018594;28;20074;-68
2022/04/06 10:48:24;;;;;;;37.83;6.65;;;;;;;;;;5027149;28;21412;-69
2022/04/06 10:50:50;;;;;;;46.65;8.13;;;;;;;;;;5018351;28;20033;-67
2022/04/06 10:53:19;;;;;;;44.08;7.25;;;;;;;;;;5053451;28;20104;-68
2022/04/06 10:56:06;;;;;;;43.88;7.55;;;;;;;;;;5020507;28;20475;-66
2022/04/06 10:58:53;;;;;;;41.08;7.43;;;;;;;;;;5018581;28;20079;-68
2022/04/06 11:01:18;;;;;;;49.30;7.55;;;;;;;;;;5018921;28;20052;-68
2022/04/06 11:03:55;;;;;;;41.72;7.15;;;;;;;;;;5019741;28;20139;-68
2022/04/06 11:06:39;;;;;;;37.70;6.80;;;;;;;;;;5018826;28;20038;-68
2022/04/06 11:12:25;;;;;;;41.00;6.90;;;;;;;;;;5019904;28;20052;-68
2022/04/06 11:15:00;;;;;;;34.75;6.25;;;;;;;;;;5017359;28;21999;-67
2022/04/06 11:17:48;;;;;;;47.83;7.60;;;;;;;;;;5018239;28;20491;-68
2022/04/06 11:20:17;;;;;;;46.15;7.20;;;;;;;;;;5020131;28;20039;-68
2022/04/06 11:22:46;;;;;;;48.22;7.88;;;;;;;;;;5021329;28;20028;-68
2022/04/06 11:25:16;;;;;;;36.35;6.60;;;;;;;;;;5019708;28;20783;-67
2022/04/06 11:27:44;;;;;;;38.45;5.85;;;;;;;;;;5018109;28;20024;-68
2022/04/06 11:30:17;;;;;;;38.30;5.95;;;;;;;;;;5016457;28;20087;-68
2022/04/06 11:32:50;;;;;;;35.03;6.60;;;;;;;;;;5018842;28;20258;-67
2022/04/06 11:35:16;;;;;;;38.92;7.20;;;;;;;;;;5016263;28;20025;-68
2022/04/06 11:37:43;;;;;;;44.60;7.55;;;;;;;;;;5021855;28;20263;-67
2022/04/06 11:40:09;;;;;;;42.90;6.60;;;;;;;;;;5019195;28;20048;-66
2022/04/06 11:42:38;;;;;;;40.92;7.20;;;;;;;;;;5019283;28;20021;-67
2022/04/06 11:45:05;;;;;;;40.63;7.15;;;;;;;;;;5020578;28;20024;-66
2022/04/06 11:47:32;;;;;;;48.78;8.15;;;;;;;;;;5017996;28;20029;-68
2022/04/06 11:50:00;;;;;;;37.95;6.63;;;;;;;;;;5017267;28;20033;-68
2022/04/06 11:52:25;;;;;;;39.92;6.75;;;;;;;;;;5018056;28;20365;-67
2022/04/06 11:54:52;;;;;;;36.65;7.05;;;;;;;;;;5034244;28;20029;-67
2022/04/06 11:57:19;;;;;;;45.22;6.63;;;;;;;;;;5017759;28;20111;-66
2022/04/06 11:59:51;;;;;;;46.55;6.70;;;;;;;;;;5017670;28;20383;-68
2022/04/06 12:02:16;;;;;;;43.97;7.07;;;;;;;;;;5018325;28;20049;-69
2022/04/06 12:04:42;;;;;;;45.20;7.43;;;;;;;;;;5022602;28;21884;-66
2022/04/06 12:07:17;;;;;;;52.25;8.07;;;;;;;;;;5022233;28;20025;-67
2022/04/06 12:09:42;;;;;;;43.10;6.95;;;;;;;;;;5021727;28;21746;-67
2022/04/06 12:12:08;;;;;;;43.60;7.00;;;;;;;;;;5021734;28;20075;-67
2022/04/06 12:14:35;;;;;;;46.38;6.88;;;;;;;;;;5005447;28;20218;-68
2022/04/06 12:17:03;;;;;;;42.00;6.13;;;;;;;;;;5020439;28;20036;-67
2022/04/06 12:19:34;;;;;;;47.85;7.45;;;;;;;;;;5019040;28;20032;-67
2022/04/06 12:22:07;;;;;;;40.42;6.90;;;;;;;;;;5019220;28;20029;-67
2022/04/06 12:24:39;;;;;;;48.08;7.75;;;;;;;;;;5019925;28;20056;-67
2022/04/06 12:27:05;;;;;;;48.92;8.05;;;;;;;;;;5021281;28;20024;-67
2022/04/06 12:29:35;;;;;;;38.90;6.78;;;;;;;;;;5019565;28;20080;-67
2022/04/06 12:32:01;;;;;;;47.75;7.18;;;;;;;;;;5019867;28;20376;-67
2022/04/06 12:34:27;;;;;;;46.28;7.38;;;;;;;;;;5038851;28;20032;-67
2022/04/06 12:36:52;;;;;;;40.03;7.38;;;;;;;;;;5019071;28;20021;-67
2022/04/06 12:39:18;;;;;;;45.92;6.85;;;;;;;;;;5038540;28;20329;-68
2022/04/06 12:42:06;;;;;;;49.40;6.80;;;;;;;;;;5017690;28;20036;-67
2022/04/06 12:44:35;;;;;;;49.67;8.20;;;;;;;;;;5018691;28;20088;-67
2022/04/06 12:47:03;;;;;;;46.40;9.60;;;;;;;;;;5021606;28;20525;-67
2022/04/06 12:49:36;;;;;;;50.08;9.25;;;;;;;;;;5018663;28;20033;-68
2022/04/06 12:52:20;;;;;;;47.63;8.65;;;;;;;;;;5018913;28;20032;-67
2022/04/06 12:54:47;;;;;;;58.47;10.25;;;;;;;;;;5051104;28;20079;-67
2022/04/06 12:57:17;;;;;;;49.05;9.55;;;;;;;;;;5018683;28;20029;-66
2022/04/06 12:59:43;;;;;;;49.40;10.13;;;;;;;;;;5018257;28;20129;-67
2022/04/06 13:02:19;;;;;;;46.25;9.90;;;;;;;;;;5020961;28;20147;-68
2022/04/06 13:04:45;;;;;;;56.85;10.90;;;;;;;;;;5018263;28;20036;-68
2022/04/06 13:07:12;;;;;;;59.00;11.77;;;;;;;;;;5018128;28;20032;-68
2022/04/06 13:09:54;;;;;;;49.55;10.32;;;;;;;;;;5020833;28;20080;-67
2022/04/06 13:12:20;;;;;;;50.28;11.13;;;;;;;;;;5038138;28;20025;-66
2022/04/06 13:14:46;;;;;;;53.28;11.98;;;;;;;;;;5021562;28;20052;-66
2022/04/06 13:17:12;;;;;;;50.22;11.57;;;;;;;;;;5034069;28;20029;-66
2022/04/06 13:19:40;;;;;;;51.70;10.65;;;;;;;;;;5021995;28;20086;-67
2022/04/06 13:22:06;;;;;;;47.78;10.57;;;;;;;;;;5020517;28;20037;-67
2022/04/06 13:24:34;;;;;;;58.67;12.02;;;;;;;;;;5018099;28;20092;-67
2022/04/06 13:27:01;;;;;;;53.85;10.23;;;;;;;;;;5019437;28;20021;-66
2022/04/06 13:29:26;;;;;;;51.42;10.02;;;;;;;;;;5017135;28;20574;-66
2022/04/06 13:31:54;;;;;;;50.83;10.55;;;;;;;;;;5017028;28;21315;-68
2022/04/06 13:34:20;;;;;;;53.53;11.88;;;;;;;;;;5017528;28;20032;-68
2022/04/06 13:36:46;;;;;;;57.00;11.02;;;;;;;;;;5017964;28;22150;-68
2022/04/06 13:39:12;;;;;;;48.97;9.80;;;;;;;;;;5017447;28;20090;-67
2022/04/06 13:41:38;;;;;;;54.65;10.65;;;;;;;;;;5017818;28;20053;-65
2022/04/06 13:44:04;;;;;;;45.75;11.52;;;;;;;;;;5016696;28;20063;-66
2022/04/06 13:46:29;;;;;;;57.05;10.10;;;;;;;;;;5018794;28;20431;-66
2022/04/06 13:48:57;;;;;;;50.58;10.27;;;;;;;;;;5017895;28;20106;-67
2022/04/06 13:51:23;;;;;;;50.85;10.13;;;;;;;;;;5018596;28;20033;-67
2022/04/06 13:53:50;;;;;;;42.55;9.02;;;;;;;;;;5018175;28;20035;-66
2022/04/06 13:56:16;;;;;;;42.05;10.18;;;;;;;;;;5017998;28;20037;-67
2022/04/06 13:58:41;;;;;;;44.30;10.18;;;;;;;;;;5018252;28;20887;-66
2022/04/06 14:01:06;;;;;;;47.80;11.45;;;;;;;;;;5017438;28;20029;-67
2022/04/06 14:03:33;;;;;;;45.60;10.25;;;;;;;;;;5018976;28;20131;-66
2022/04/06 14:06:01;;;;;;;53.92;10.85;;;;;;;;;;5016390;28;20107;-67
2022/04/06 14:08:27;;;;;;;48.00;10.73;;;;;;;;;;5018248;28;20028;-66
2022/04/06 14:10:53;;;;;;;45.65;9.85;;;;;;;;;;5018281;28;20032;-66
2022/04/06 14:13:21;;;;;;;40.83;9.65;;;;;;;;;;5019412;28;20174;-66
2022/04/06 14:15:47;;;;;;;42.47;9.35;;;;;;;;;;5016413;28;20170;-66
2022/04/06 14:18:12;;;;;;;41.63;8.85;;;;;;;;;;5016375;28;20489;-69
2022/04/06 14:20:38;;;;;;;51.72;9.68;;;;;;;;;;5019102;28;20077;-66
2022/04/06 14:23:03;;;;;;;42.30;9.55;;;;;;;;;;5026430;28;20119;-67
2022/04/06 14:25:28;;;;;;;40.70;7.72;;;;;;;;;;5017246;28;20037;-66
2022/04/06 14:27:53;;;;;;;48.42;8.10;;;;;;;;;;5020377;28;20036;-66
2022/04/06 14:30:19;;;;;;;45.40;8.77;;;;;;;;;;5017017;28;20361;-66
2022/04/06 14:32:45;;;;;;;44.95;8.35;;;;;;;;;;5016796;28;20112;-66
2022/04/06 14:35:17;;;;;;;49.63;8.13;;;;;;;;;;5019710;28;20040;-66
2022/04/06 14:37:44;;;;;;;32.63;7.22;;;;;;;;;;5018864;28;20028;-68
2022/04/06 14:40:10;;;;;;;36.25;7.00;;;;;;;;;;5019132;28;20029;-67
2022/04/06 14:42:36;;;;;;;38.42;7.05;;;;;;;;;;5046962;28;20052;-67
2022/04/06 14:45:08;;;;;;;31.98;7.55;;;;;;;;;;5016819;28;20069;-69